sensor_id;sensor_type;location;lat;lon;timestamp;P1;durP1;ratioP1;P2;durP2;ratioP2
19329;SDS011;9799;48.214;16.388;2022-07-29T00:03:03;6.15;;;5.43;;
19329;SDS011;9799;48.214;16.388;2022-07-29T00:06:24;7.32;;;5.60;;
19329;SDS011;9799;48.214;16.388;2022-07-29T00:09:47;8.02;;;6.05;;
19329;SDS011;9799;48.214;16.388;2022-07-29T00:13:08;6.53;;;5.93;;
19329;SDS011;9799;48.214;16.388;2022-07-29T00:16:29;6.70;;;5.95;;
19329;SDS011;9799;48.214;16.388;2022-07-29T00:19:50;6.90;;;6.20;;
19329;SDS011;9799;48.214;16.388;2022-07-29T00:23:12;12.65;;;5.68;;
19329;SDS011;9799;48.214;16.388;2022-07-29T00:26:34;6.72;;;6.07;;
19329;SDS011;9799;48.214;16.388;2022-07-29T00:29:55;8.65;;;5.68;;
19329;SDS011;9799;48.214;16.388;2022-07-29T00:33:16;6.70;;;6.10;;
19329;SDS011;9799;48.214;16.388;2022-07-29T00:36:38;7.65;;;6.18;;
19329;SDS011;9799;48.214;16.388;2022-07-29T00:39:59;9.40;;;5.93;;
19329;SDS011;9799;48.214;16.388;2022-07-29T00:43:21;7.85;;;5.95;;
19329;SDS011;9799;48.214;16.388;2022-07-29T00:46:42;5.75;;;5.20;;
19329;SDS011;9799;48.214;16.388;2022-07-29T00:50:04;7.38;;;6.10;;
19329;SDS011;9799;48.214;16.388;2022-07-29T00:53:27;6.38;;;5.70;;
19329;SDS011;9799;48.214;16.388;2022-07-29T00:56:50;6.82;;;6.22;;
19329;SDS011;9799;48.214;16.388;2022-07-29T01:00:13;8.95;;;5.30;;
19329;SDS011;9799;48.214;16.388;2022-07-29T01:03:36;6.03;;;5.53;;
19329;SDS011;9799;48.214;16.388;2022-07-29T01:06:57;6.78;;;6.18;;
19329;SDS011;9799;48.214;16.388;2022-07-29T01:10:21;6.68;;;5.43;;
19329;SDS011;9799;48.214;16.388;2022-07-29T01:13:44;7.25;;;5.80;;
19329;SDS011;9799;48.214;16.388;2022-07-29T01:17:10;7.03;;;5.97;;
19329;SDS011;9799;48.214;16.388;2022-07-29T01:20:39;8.23;;;5.72;;
19329;SDS011;9799;48.214;16.388;2022-07-29T01:24:33;6.97;;;6.38;;
19329;SDS011;9799;48.214;16.388;2022-07-29T01:28:17;6.13;;;5.47;;
19329;SDS011;9799;48.214;16.388;2022-07-29T01:32:08;6.07;;;5.55;;
19329;SDS011;9799;48.214;16.388;2022-07-29T01:35:33;15.65;;;5.60;;
19329;SDS011;9799;48.214;16.388;2022-07-29T01:38:58;9.60;;;5.85;;
19329;SDS011;9799;48.214;16.388;2022-07-29T01:42:26;6.40;;;5.85;;
19329;SDS011;9799;48.214;16.388;2022-07-29T01:45:56;6.40;;;5.80;;
19329;SDS011;9799;48.214;16.388;2022-07-29T01:49:21;8.05;;;6.65;;
19329;SDS011;9799;48.214;16.388;2022-07-29T01:52:49;8.13;;;6.47;;
19329;SDS011;9799;48.214;16.388;2022-07-29T01:56:16;6.82;;;6.18;;
19329;SDS011;9799;48.214;16.388;2022-07-29T01:59:39;6.25;;;5.68;;
19329;SDS011;9799;48.214;16.388;2022-07-29T02:03:04;7.53;;;6.18;;
19329;SDS011;9799;48.214;16.388;2022-07-29T02:06:29;8.63;;;6.38;;
19329;SDS011;9799;48.214;16.388;2022-07-29T02:09:52;9.90;;;6.97;;
19329;SDS011;9799;48.214;16.388;2022-07-29T02:13:15;7.78;;;6.97;;
19329;SDS011;9799;48.214;16.388;2022-07-29T02:16:38;6.97;;;6.28;;
19329;SDS011;9799;48.214;16.388;2022-07-29T02:20:04;6.80;;;6.10;;
19329;SDS011;9799;48.214;16.388;2022-07-29T02:23:27;7.15;;;6.45;;
19329;SDS011;9799;48.214;16.388;2022-07-29T02:26:49;9.27;;;6.75;;
19329;SDS011;9799;48.214;16.388;2022-07-29T02:30:11;8.93;;;6.97;;
19329;SDS011;9799;48.214;16.388;2022-07-29T02:33:33;7.05;;;6.35;;
19329;SDS011;9799;48.214;16.388;2022-07-29T02:36:56;9.95;;;6.30;;
19329;SDS011;9799;48.214;16.388;2022-07-29T02:40:18;6.60;;;6.03;;
19329;SDS011;9799;48.214;16.388;2022-07-29T02:43:40;7.75;;;6.60;;
19329;SDS011;9799;48.214;16.388;2022-07-29T02:47:05;7.13;;;6.53;;
19329;SDS011;9799;48.214;16.388;2022-07-29T02:50:34;6.40;;;5.80;;
19329;SDS011;9799;48.214;16.388;2022-07-29T02:54:01;8.13;;;6.32;;
19329;SDS011;9799;48.214;16.388;2022-07-29T02:57:32;7.13;;;5.97;;
19329;SDS011;9799;48.214;16.388;2022-07-29T03:00:57;7.85;;;6.90;;
19329;SDS011;9799;48.214;16.388;2022-07-29T03:04:20;7.93;;;6.88;;
19329;SDS011;9799;48.214;16.388;2022-07-29T03:07:47;7.15;;;6.45;;
19329;SDS011;9799;48.214;16.388;2022-07-29T03:11:14;7.53;;;6.85;;
19329;SDS011;9799;48.214;16.388;2022-07-29T03:14:37;10.32;;;7.05;;
19329;SDS011;9799;48.214;16.388;2022-07-29T03:17:59;10.05;;;7.07;;
19329;SDS011;9799;48.214;16.388;2022-07-29T03:21:21;7.10;;;6.47;;
19329;SDS011;9799;48.214;16.388;2022-07-29T03:24:42;7.70;;;6.53;;
19329;SDS011;9799;48.214;16.388;2022-07-29T03:28:04;7.50;;;6.88;;
19329;SDS011;9799;48.214;16.388;2022-07-29T03:31:25;8.45;;;6.82;;
19329;SDS011;9799;48.214;16.388;2022-07-29T03:34:47;8.05;;;7.25;;
19329;SDS011;9799;48.214;16.388;2022-07-29T03:38:08;7.60;;;6.57;;
19329;SDS011;9799;48.214;16.388;2022-07-29T03:41:29;7.65;;;6.88;;
19329;SDS011;9799;48.214;16.388;2022-07-29T03:44:53;7.57;;;6.57;;
19329;SDS011;9799;48.214;16.388;2022-07-29T03:48:16;7.95;;;7.15;;
19329;SDS011;9799;48.214;16.388;2022-07-29T03:51:40;12.30;;;6.88;;
19329;SDS011;9799;48.214;16.388;2022-07-29T03:55:01;8.38;;;6.95;;
19329;SDS011;9799;48.214;16.388;2022-07-29T03:58:23;7.28;;;6.57;;
19329;SDS011;9799;48.214;16.388;2022-07-29T04:01:48;14.07;;;6.70;;
19329;SDS011;9799;48.214;16.388;2022-07-29T04:05:11;9.80;;;7.53;;
19329;SDS011;9799;48.214;16.388;2022-07-29T04:08:33;7.88;;;7.07;;
19329;SDS011;9799;48.214;16.388;2022-07-29T04:11:55;10.00;;;8.10;;
19329;SDS011;9799;48.214;16.388;2022-07-29T04:15:16;8.10;;;7.32;;
19329;SDS011;9799;48.214;16.388;2022-07-29T04:18:38;10.80;;;8.10;;
19329;SDS011;9799;48.214;16.388;2022-07-29T04:22:00;8.15;;;7.45;;
19329;SDS011;9799;48.214;16.388;2022-07-29T04:25:22;7.82;;;7.13;;
19329;SDS011;9799;48.214;16.388;2022-07-29T04:28:43;7.70;;;6.97;;
19329;SDS011;9799;48.214;16.388;2022-07-29T04:32:05;8.55;;;7.70;;
19329;SDS011;9799;48.214;16.388;2022-07-29T04:35:28;10.20;;;7.70;;
19329;SDS011;9799;48.214;16.388;2022-07-29T04:38:49;7.45;;;6.82;;
19329;SDS011;9799;48.214;16.388;2022-07-29T04:42:11;8.52;;;7.40;;
19329;SDS011;9799;48.214;16.388;2022-07-29T04:45:32;7.95;;;7.03;;
19329;SDS011;9799;48.214;16.388;2022-07-29T04:48:53;9.07;;;7.78;;
19329;SDS011;9799;48.214;16.388;2022-07-29T04:52:15;9.00;;;8.13;;
19329;SDS011;9799;48.214;16.388;2022-07-29T04:55:37;8.27;;;7.45;;
19329;SDS011;9799;48.214;16.388;2022-07-29T04:58:58;10.30;;;8.05;;
19329;SDS011;9799;48.214;16.388;2022-07-29T05:02:19;11.07;;;8.27;;
19329;SDS011;9799;48.214;16.388;2022-07-29T05:05:41;10.07;;;8.05;;
19329;SDS011;9799;48.214;16.388;2022-07-29T05:09:04;11.35;;;7.78;;
19329;SDS011;9799;48.214;16.388;2022-07-29T05:12:25;12.93;;;7.55;;
19329;SDS011;9799;48.214;16.388;2022-07-29T05:15:47;12.10;;;7.68;;
19329;SDS011;9799;48.214;16.388;2022-07-29T05:19:08;11.15;;;8.45;;
19329;SDS011;9799;48.214;16.388;2022-07-29T05:22:29;9.60;;;7.40;;
19329;SDS011;9799;48.214;16.388;2022-07-29T05:25:51;8.98;;;7.90;;
19329;SDS011;9799;48.214;16.388;2022-07-29T05:29:13;7.95;;;7.10;;
19329;SDS011;9799;48.214;16.388;2022-07-29T05:32:34;8.43;;;7.50;;
19329;SDS011;9799;48.214;16.388;2022-07-29T05:35:55;7.40;;;6.70;;
19329;SDS011;9799;48.214;16.388;2022-07-29T05:39:16;10.43;;;7.55;;
19329;SDS011;9799;48.214;16.388;2022-07-29T05:42:39;8.77;;;7.20;;
19329;SDS011;9799;48.214;16.388;2022-07-29T05:46:00;8.52;;;7.72;;
19329;SDS011;9799;48.214;16.388;2022-07-29T05:49:21;11.05;;;8.05;;
19329;SDS011;9799;48.214;16.388;2022-07-29T05:52:42;10.32;;;7.63;;
19329;SDS011;9799;48.214;16.388;2022-07-29T05:56:03;12.70;;;8.25;;
19329;SDS011;9799;48.214;16.388;2022-07-29T05:59:27;10.27;;;8.90;;
19329;SDS011;9799;48.214;16.388;2022-07-29T06:02:48;8.68;;;7.85;;
19329;SDS011;9799;48.214;16.388;2022-07-29T06:06:09;9.57;;;7.43;;
19329;SDS011;9799;48.214;16.388;2022-07-29T06:09:30;9.55;;;8.07;;
19329;SDS011;9799;48.214;16.388;2022-07-29T06:12:52;8.85;;;8.07;;
19329;SDS011;9799;48.214;16.388;2022-07-29T06:16:14;16.15;;;7.72;;
19329;SDS011;9799;48.214;16.388;2022-07-29T06:19:35;9.98;;;7.90;;
19329;SDS011;9799;48.214;16.388;2022-07-29T06:22:57;11.00;;;7.88;;
19329;SDS011;9799;48.214;16.388;2022-07-29T06:26:18;9.68;;;8.02;;
19329;SDS011;9799;48.214;16.388;2022-07-29T06:29:39;8.43;;;7.53;;
19329;SDS011;9799;48.214;16.388;2022-07-29T06:33:01;9.20;;;8.13;;
19329;SDS011;9799;48.214;16.388;2022-07-29T06:36:23;7.90;;;7.15;;
19329;SDS011;9799;48.214;16.388;2022-07-29T06:39:44;11.88;;;8.80;;
19329;SDS011;9799;48.214;16.388;2022-07-29T06:43:06;8.50;;;7.75;;
19329;SDS011;9799;48.214;16.388;2022-07-29T06:46:27;7.95;;;7.28;;
19329;SDS011;9799;48.214;16.388;2022-07-29T06:49:49;7.70;;;7.00;;
19329;SDS011;9799;48.214;16.388;2022-07-29T06:53:10;9.00;;;8.10;;
19329;SDS011;9799;48.214;16.388;2022-07-29T06:56:32;8.35;;;7.53;;
19329;SDS011;9799;48.214;16.388;2022-07-29T06:59:56;10.18;;;8.20;;
19329;SDS011;9799;48.214;16.388;2022-07-29T07:03:17;14.60;;;8.73;;
19329;SDS011;9799;48.214;16.388;2022-07-29T07:06:40;12.95;;;9.13;;
19329;SDS011;9799;48.214;16.388;2022-07-29T07:10:01;15.05;;;10.20;;
19329;SDS011;9799;48.214;16.388;2022-07-29T07:13:23;11.20;;;9.15;;
19329;SDS011;9799;48.214;16.388;2022-07-29T07:16:44;12.90;;;8.70;;
19329;SDS011;9799;48.214;16.388;2022-07-29T07:20:06;10.27;;;7.25;;
19329;SDS011;9799;48.214;16.388;2022-07-29T07:23:29;11.02;;;8.90;;
19329;SDS011;9799;48.214;16.388;2022-07-29T07:26:50;11.68;;;8.68;;
19329;SDS011;9799;48.214;16.388;2022-07-29T07:30:12;8.85;;;8.00;;
19329;SDS011;9799;48.214;16.388;2022-07-29T07:33:33;12.88;;;8.20;;
19329;SDS011;9799;48.214;16.388;2022-07-29T07:36:54;9.30;;;7.97;;
19329;SDS011;9799;48.214;16.388;2022-07-29T07:40:17;9.75;;;8.15;;
19329;SDS011;9799;48.214;16.388;2022-07-29T07:43:38;10.38;;;8.00;;
19329;SDS011;9799;48.214;16.388;2022-07-29T07:46:59;14.75;;;8.43;;
19329;SDS011;9799;48.214;16.388;2022-07-29T07:50:20;11.00;;;8.27;;
19329;SDS011;9799;48.214;16.388;2022-07-29T07:53:41;8.90;;;8.10;;
19329;SDS011;9799;48.214;16.388;2022-07-29T07:57:05;8.60;;;7.90;;
19329;SDS011;9799;48.214;16.388;2022-07-29T08:00:26;10.07;;;8.93;;
19329;SDS011;9799;48.214;16.388;2022-07-29T08:03:47;12.75;;;7.53;;
19329;SDS011;9799;48.214;16.388;2022-07-29T08:07:09;11.40;;;7.93;;
19329;SDS011;9799;48.214;16.388;2022-07-29T08:10:30;9.88;;;7.55;;
19329;SDS011;9799;48.214;16.388;2022-07-29T08:14:10;11.43;;;8.10;;
19329;SDS011;9799;48.214;16.388;2022-07-29T08:17:31;9.73;;;8.82;;
19329;SDS011;9799;48.214;16.388;2022-07-29T08:20:52;9.23;;;8.43;;
19329;SDS011;9799;48.214;16.388;2022-07-29T08:24:14;10.02;;;9.13;;
19329;SDS011;9799;48.214;16.388;2022-07-29T08:27:52;10.30;;;9.02;;
19329;SDS011;9799;48.214;16.388;2022-07-29T08:31:15;10.55;;;9.07;;
19329;SDS011;9799;48.214;16.388;2022-07-29T08:34:36;12.18;;;7.40;;
19329;SDS011;9799;48.214;16.388;2022-07-29T08:37:58;11.43;;;7.93;;
19329;SDS011;9799;48.214;16.388;2022-07-29T08:41:19;12.35;;;8.30;;
19329;SDS011;9799;48.214;16.388;2022-07-29T08:44:40;12.10;;;7.90;;
19329;SDS011;9799;48.214;16.388;2022-07-29T08:48:03;11.10;;;8.60;;
19329;SDS011;9799;48.214;16.388;2022-07-29T08:51:26;11.43;;;8.77;;
19329;SDS011;9799;48.214;16.388;2022-07-29T08:54:48;8.95;;;8.15;;
19329;SDS011;9799;48.214;16.388;2022-07-29T08:58:10;9.63;;;8.70;;
19329;SDS011;9799;48.214;16.388;2022-07-29T09:01:32;8.43;;;7.53;;
19329;SDS011;9799;48.214;16.388;2022-07-29T09:04:59;9.15;;;8.23;;
19329;SDS011;9799;48.214;16.388;2022-07-29T09:08:21;9.23;;;8.32;;
19329;SDS011;9799;48.214;16.388;2022-07-29T09:11:44;9.10;;;8.30;;
19329;SDS011;9799;48.214;16.388;2022-07-29T09:15:06;12.45;;;7.32;;
19329;SDS011;9799;48.214;16.388;2022-07-29T09:18:34;10.25;;;7.07;;
19329;SDS011;9799;48.214;16.388;2022-07-29T09:21:58;9.10;;;8.20;;
19329;SDS011;9799;48.214;16.388;2022-07-29T09:28:57;10.30;;;9.35;;
19329;SDS011;9799;48.214;16.388;2022-07-29T09:32:19;8.73;;;7.38;;
19329;SDS011;9799;48.214;16.388;2022-07-29T09:35:40;8.45;;;7.47;;
19329;SDS011;9799;48.214;16.388;2022-07-29T09:39:03;8.73;;;7.88;;
19329;SDS011;9799;48.214;16.388;2022-07-29T09:42:27;8.30;;;7.50;;
19329;SDS011;9799;48.214;16.388;2022-07-29T09:45:49;9.27;;;7.65;;
19329;SDS011;9799;48.214;16.388;2022-07-29T09:49:11;8.57;;;7.85;;
19329;SDS011;9799;48.214;16.388;2022-07-29T09:52:41;8.05;;;7.43;;
19329;SDS011;9799;48.214;16.388;2022-07-29T09:56:08;8.80;;;8.00;;
19329;SDS011;9799;48.214;16.388;2022-07-29T09:59:30;8.55;;;7.68;;
19329;SDS011;9799;48.214;16.388;2022-07-29T10:02:51;7.78;;;7.07;;
19329;SDS011;9799;48.214;16.388;2022-07-29T10:06:20;7.45;;;6.75;;
19329;SDS011;9799;48.214;16.388;2022-07-29T10:09:49;8.07;;;7.28;;
19329;SDS011;9799;48.214;16.388;2022-07-29T10:13:14;9.45;;;7.57;;
19329;SDS011;9799;48.214;16.388;2022-07-29T10:16:35;9.15;;;7.78;;
19329;SDS011;9799;48.214;16.388;2022-07-29T10:19:57;8.27;;;7.40;;
19329;SDS011;9799;48.214;16.388;2022-07-29T10:23:18;7.60;;;7.00;;
19329;SDS011;9799;48.214;16.388;2022-07-29T10:26:40;11.57;;;8.98;;
19329;SDS011;9799;48.214;16.388;2022-07-29T10:30:03;8.48;;;7.55;;
19329;SDS011;9799;48.214;16.388;2022-07-29T10:33:29;6.75;;;6.07;;
19329;SDS011;9799;48.214;16.388;2022-07-29T10:37:10;9.23;;;7.78;;
19329;SDS011;9799;48.214;16.388;2022-07-29T10:40:39;7.80;;;7.10;;
19329;SDS011;9799;48.214;16.388;2022-07-29T10:44:28;8.63;;;7.93;;
19329;SDS011;9799;48.214;16.388;2022-07-29T10:48:01;7.68;;;6.40;;
19329;SDS011;9799;48.214;16.388;2022-07-29T10:51:24;6.95;;;6.25;;
19329;SDS011;9799;48.214;16.388;2022-07-29T10:54:46;7.13;;;6.43;;
19329;SDS011;9799;48.214;16.388;2022-07-29T10:58:10;7.03;;;6.45;;
19329;SDS011;9799;48.214;16.388;2022-07-29T11:01:32;10.10;;;6.93;;
19329;SDS011;9799;48.214;16.388;2022-07-29T11:05:02;7.13;;;6.45;;
19329;SDS011;9799;48.214;16.388;2022-07-29T11:08:25;9.93;;;9.02;;
19329;SDS011;9799;48.214;16.388;2022-07-29T11:11:47;8.27;;;6.57;;
19329;SDS011;9799;48.214;16.388;2022-07-29T11:15:08;7.90;;;7.25;;
19329;SDS011;9799;48.214;16.388;2022-07-29T11:18:36;7.85;;;6.57;;
19329;SDS011;9799;48.214;16.388;2022-07-29T11:22:32;7.00;;;6.40;;
19329;SDS011;9799;48.214;16.388;2022-07-29T11:29:34;6.85;;;6.05;;
19329;SDS011;9799;48.214;16.388;2022-07-29T11:32:58;8.45;;;6.38;;
19329;SDS011;9799;48.214;16.388;2022-07-29T11:36:19;7.13;;;5.97;;
19329;SDS011;9799;48.214;16.388;2022-07-29T11:39:42;7.00;;;6.40;;
19329;SDS011;9799;48.214;16.388;2022-07-29T11:43:06;6.63;;;6.03;;
19329;SDS011;9799;48.214;16.388;2022-07-29T11:46:43;6.78;;;6.18;;
19329;SDS011;9799;48.214;16.388;2022-07-29T11:50:06;6.82;;;6.15;;
19329;SDS011;9799;48.214;16.388;2022-07-29T11:53:29;7.22;;;6.63;;
19329;SDS011;9799;48.214;16.388;2022-07-29T11:56:51;6.25;;;5.72;;
19329;SDS011;9799;48.214;16.388;2022-07-29T12:00:20;7.47;;;6.80;;
19329;SDS011;9799;48.214;16.388;2022-07-29T12:03:43;6.85;;;6.25;;
19329;SDS011;9799;48.214;16.388;2022-07-29T12:07:04;6.53;;;5.95;;
19329;SDS011;9799;48.214;16.388;2022-07-29T12:10:29;6.55;;;5.95;;
19329;SDS011;9799;48.214;16.388;2022-07-29T12:13:52;7.35;;;6.47;;
19329;SDS011;9799;48.214;16.388;2022-07-29T12:17:24;6.38;;;5.57;;
19329;SDS011;9799;48.214;16.388;2022-07-29T12:20:46;13.75;;;6.30;;
19329;SDS011;9799;48.214;16.388;2022-07-29T12:24:08;10.20;;;6.05;;
19329;SDS011;9799;48.214;16.388;2022-07-29T12:27:29;6.68;;;5.93;;
19329;SDS011;9799;48.214;16.388;2022-07-29T12:30:52;7.57;;;6.47;;
19329;SDS011;9799;48.214;16.388;2022-07-29T12:34:13;7.55;;;6.40;;
19329;SDS011;9799;48.214;16.388;2022-07-29T12:37:37;7.88;;;6.30;;
19329;SDS011;9799;48.214;16.388;2022-07-29T12:40:59;9.82;;;6.97;;
19329;SDS011;9799;48.214;16.388;2022-07-29T12:44:20;6.82;;;5.88;;
19329;SDS011;9799;48.214;16.388;2022-07-29T12:47:52;7.15;;;6.40;;
19329;SDS011;9799;48.214;16.388;2022-07-29T12:51:13;7.30;;;6.25;;
19329;SDS011;9799;48.214;16.388;2022-07-29T12:54:36;6.43;;;5.82;;
19329;SDS011;9799;48.214;16.388;2022-07-29T12:58:08;7.40;;;5.85;;
19329;SDS011;9799;48.214;16.388;2022-07-29T13:01:35;9.10;;;6.22;;
19329;SDS011;9799;48.214;16.388;2022-07-29T13:04:59;6.15;;;5.65;;
19329;SDS011;9799;48.214;16.388;2022-07-29T13:08:21;10.30;;;6.82;;
19329;SDS011;9799;48.214;16.388;2022-07-29T13:11:42;7.03;;;6.32;;
19329;SDS011;9799;48.214;16.388;2022-07-29T13:15:12;6.25;;;5.70;;
19329;SDS011;9799;48.214;16.388;2022-07-29T13:18:35;5.72;;;5.22;;
19329;SDS011;9799;48.214;16.388;2022-07-29T13:21:57;7.03;;;6.32;;
19329;SDS011;9799;48.214;16.388;2022-07-29T13:25:23;7.07;;;6.47;;
19329;SDS011;9799;48.214;16.388;2022-07-29T13:28:45;7.60;;;6.32;;
19329;SDS011;9799;48.214;16.388;2022-07-29T13:32:06;7.63;;;6.88;;
19329;SDS011;9799;48.214;16.388;2022-07-29T13:35:27;6.97;;;6.38;;
19329;SDS011;9799;48.214;16.388;2022-07-29T13:38:50;7.63;;;7.03;;
19329;SDS011;9799;48.214;16.388;2022-07-29T13:42:11;13.75;;;7.05;;
19329;SDS011;9799;48.214;16.388;2022-07-29T13:45:33;7.60;;;7.00;;
19329;SDS011;9799;48.214;16.388;2022-07-29T13:48:55;8.10;;;7.28;;
19329;SDS011;9799;48.214;16.388;2022-07-29T13:52:16;7.35;;;6.65;;
19329;SDS011;9799;48.214;16.388;2022-07-29T13:55:39;11.90;;;7.40;;
19329;SDS011;9799;48.214;16.388;2022-07-29T13:59:00;7.18;;;6.57;;
19329;SDS011;9799;48.214;16.388;2022-07-29T14:02:21;7.35;;;6.18;;
19329;SDS011;9799;48.214;16.388;2022-07-29T14:05:42;10.13;;;7.07;;
19329;SDS011;9799;48.214;16.388;2022-07-29T14:09:04;8.32;;;7.53;;
19329;SDS011;9799;48.214;16.388;2022-07-29T14:12:29;10.45;;;7.63;;
19329;SDS011;9799;48.214;16.388;2022-07-29T14:15:50;10.10;;;7.03;;
19329;SDS011;9799;48.214;16.388;2022-07-29T14:19:11;17.77;;;15.90;;
19329;SDS011;9799;48.214;16.388;2022-07-29T14:22:32;10.18;;;7.90;;
19329;SDS011;9799;48.214;16.388;2022-07-29T14:25:54;8.73;;;7.82;;
19329;SDS011;9799;48.214;16.388;2022-07-29T14:29:16;8.80;;;7.70;;
19329;SDS011;9799;48.214;16.388;2022-07-29T14:32:37;8.38;;;7.68;;
19329;SDS011;9799;48.214;16.388;2022-07-29T14:35:58;9.23;;;8.30;;
19329;SDS011;9799;48.214;16.388;2022-07-29T14:39:19;8.57;;;7.50;;
19329;SDS011;9799;48.214;16.388;2022-07-29T14:42:41;12.13;;;8.82;;
19329;SDS011;9799;48.214;16.388;2022-07-29T14:46:04;10.73;;;8.80;;
19329;SDS011;9799;48.214;16.388;2022-07-29T14:49:26;9.90;;;8.52;;
19329;SDS011;9799;48.214;16.388;2022-07-29T14:52:47;9.68;;;8.18;;
19329;SDS011;9799;48.214;16.388;2022-07-29T14:56:08;11.00;;;8.82;;
19329;SDS011;9799;48.214;16.388;2022-07-29T14:59:30;9.02;;;8.13;;
19329;SDS011;9799;48.214;16.388;2022-07-29T15:02:52;12.25;;;8.48;;
19329;SDS011;9799;48.214;16.388;2022-07-29T15:06:14;9.75;;;8.75;;
19329;SDS011;9799;48.214;16.388;2022-07-29T15:09:35;9.27;;;8.40;;
19329;SDS011;9799;48.214;16.388;2022-07-29T15:12:56;9.65;;;8.68;;
19329;SDS011;9799;48.214;16.388;2022-07-29T15:16:17;10.13;;;8.90;;
19329;SDS011;9799;48.214;16.388;2022-07-29T15:19:40;9.80;;;8.88;;
19329;SDS011;9799;48.214;16.388;2022-07-29T15:23:01;9.73;;;8.93;;
19329;SDS011;9799;48.214;16.388;2022-07-29T15:26:22;11.93;;;9.52;;
19329;SDS011;9799;48.214;16.388;2022-07-29T15:29:43;10.45;;;9.45;;
19329;SDS011;9799;48.214;16.388;2022-07-29T15:33:05;10.23;;;9.25;;
19329;SDS011;9799;48.214;16.388;2022-07-29T15:36:28;10.80;;;9.70;;
19329;SDS011;9799;48.214;16.388;2022-07-29T15:39:49;13.70;;;9.93;;
19329;SDS011;9799;48.214;16.388;2022-07-29T15:43:10;10.65;;;9.73;;
19329;SDS011;9799;48.214;16.388;2022-07-29T15:46:31;11.15;;;9.98;;
19329;SDS011;9799;48.214;16.388;2022-07-29T15:50:09;11.10;;;10.10;;
19329;SDS011;9799;48.214;16.388;2022-07-29T15:53:35;10.38;;;9.38;;
19329;SDS011;9799;48.214;16.388;2022-07-29T15:56:56;10.85;;;9.73;;
19329;SDS011;9799;48.214;16.388;2022-07-29T16:00:18;12.45;;;9.07;;
19329;SDS011;9799;48.214;16.388;2022-07-29T16:03:40;13.68;;;11.63;;
19329;SDS011;9799;48.214;16.388;2022-07-29T16:07:02;12.48;;;9.80;;
19329;SDS011;9799;48.214;16.388;2022-07-29T16:10:25;13.23;;;9.13;;
19329;SDS011;9799;48.214;16.388;2022-07-29T16:13:46;9.63;;;8.93;;
19329;SDS011;9799;48.214;16.388;2022-07-29T16:17:07;11.00;;;9.00;;
19329;SDS011;9799;48.214;16.388;2022-07-29T16:20:28;11.02;;;9.80;;
19329;SDS011;9799;48.214;16.388;2022-07-29T16:23:49;10.70;;;9.65;;
19329;SDS011;9799;48.214;16.388;2022-07-29T16:27:12;9.95;;;9.02;;
19329;SDS011;9799;48.214;16.388;2022-07-29T16:30:33;10.60;;;9.57;;
19329;SDS011;9799;48.214;16.388;2022-07-29T16:33:55;9.82;;;8.85;;
19329;SDS011;9799;48.214;16.388;2022-07-29T16:37:16;9.90;;;9.00;;
19329;SDS011;9799;48.214;16.388;2022-07-29T16:40:37;9.27;;;8.50;;
19329;SDS011;9799;48.214;16.388;2022-07-29T16:44:00;10.32;;;9.35;;
19329;SDS011;9799;48.214;16.388;2022-07-29T16:47:21;10.63;;;9.60;;
19329;SDS011;9799;48.214;16.388;2022-07-29T16:50:42;9.35;;;8.48;;
19329;SDS011;9799;48.214;16.388;2022-07-29T16:54:04;10.05;;;8.40;;
19329;SDS011;9799;48.214;16.388;2022-07-29T16:57:27;10.50;;;8.68;;
19329;SDS011;9799;48.214;16.388;2022-07-29T17:00:49;12.60;;;8.98;;
19329;SDS011;9799;48.214;16.388;2022-07-29T17:04:10;11.38;;;9.45;;
19329;SDS011;9799;48.214;16.388;2022-07-29T17:07:33;10.25;;;9.25;;
19329;SDS011;9799;48.214;16.388;2022-07-29T17:10:54;10.52;;;9.50;;
19329;SDS011;9799;48.214;16.388;2022-07-29T17:14:15;13.27;;;10.10;;
19329;SDS011;9799;48.214;16.388;2022-07-29T17:17:38;10.90;;;9.90;;
19329;SDS011;9799;48.214;16.388;2022-07-29T17:20:59;12.48;;;9.85;;
19329;SDS011;9799;48.214;16.388;2022-07-29T17:24:21;14.57;;;10.35;;
19329;SDS011;9799;48.214;16.388;2022-07-29T17:27:44;9.38;;;8.32;;
19329;SDS011;9799;48.214;16.388;2022-07-29T17:31:05;9.43;;;8.52;;
19329;SDS011;9799;48.214;16.388;2022-07-29T17:34:28;10.38;;;9.30;;
19329;SDS011;9799;48.214;16.388;2022-07-29T17:37:49;10.57;;;9.57;;
19329;SDS011;9799;48.214;16.388;2022-07-29T17:41:11;10.40;;;9.13;;
19329;SDS011;9799;48.214;16.388;2022-07-29T17:44:32;10.75;;;9.85;;
19329;SDS011;9799;48.214;16.388;2022-07-29T17:47:53;12.02;;;10.07;;
19329;SDS011;9799;48.214;16.388;2022-07-29T17:51:16;11.55;;;10.45;;
19329;SDS011;9799;48.214;16.388;2022-07-29T17:54:37;10.63;;;9.73;;
19329;SDS011;9799;48.214;16.388;2022-07-29T17:57:58;10.35;;;9.45;;
19329;SDS011;9799;48.214;16.388;2022-07-29T18:01:20;10.30;;;9.38;;
19329;SDS011;9799;48.214;16.388;2022-07-29T18:04:41;10.50;;;9.55;;
19329;SDS011;9799;48.214;16.388;2022-07-29T18:08:04;11.52;;;10.23;;
19329;SDS011;9799;48.214;16.388;2022-07-29T18:11:25;10.70;;;9.80;;
19329;SDS011;9799;48.214;16.388;2022-07-29T18:14:48;11.95;;;10.80;;
19329;SDS011;9799;48.214;16.388;2022-07-29T18:18:09;12.13;;;10.90;;
19329;SDS011;9799;48.214;16.388;2022-07-29T18:21:31;10.13;;;9.23;;
19329;SDS011;9799;48.214;16.388;2022-07-29T18:24:55;11.05;;;10.15;;
19329;SDS011;9799;48.214;16.388;2022-07-29T18:28:16;11.13;;;10.00;;
19329;SDS011;9799;48.214;16.388;2022-07-29T18:31:37;11.60;;;10.40;;
19329;SDS011;9799;48.214;16.388;2022-07-29T18:34:59;10.85;;;9.82;;
19329;SDS011;9799;48.214;16.388;2022-07-29T18:38:23;13.80;;;9.98;;
19329;SDS011;9799;48.214;16.388;2022-07-29T18:41:45;10.48;;;9.57;;
19329;SDS011;9799;48.214;16.388;2022-07-29T18:45:07;18.83;;;11.18;;
19329;SDS011;9799;48.214;16.388;2022-07-29T18:48:28;12.15;;;11.00;;
19329;SDS011;9799;48.214;16.388;2022-07-29T18:51:51;11.38;;;10.38;;
19329;SDS011;9799;48.214;16.388;2022-07-29T18:55:12;11.00;;;10.02;;
19329;SDS011;9799;48.214;16.388;2022-07-29T18:58:35;14.25;;;11.88;;
19329;SDS011;9799;48.214;16.388;2022-07-29T19:01:57;12.32;;;11.02;;
19329;SDS011;9799;48.214;16.388;2022-07-29T19:05:18;13.05;;;11.77;;
19329;SDS011;9799;48.214;16.388;2022-07-29T19:08:40;11.88;;;10.80;;
19329;SDS011;9799;48.214;16.388;2022-07-29T19:12:01;14.55;;;11.75;;
19329;SDS011;9799;48.214;16.388;2022-07-29T19:15:24;12.60;;;11.30;;
19329;SDS011;9799;48.214;16.388;2022-07-29T19:18:45;11.25;;;10.15;;
19329;SDS011;9799;48.214;16.388;2022-07-29T19:22:06;11.60;;;10.48;;
19329;SDS011;9799;48.214;16.388;2022-07-29T19:25:28;11.93;;;10.73;;
19329;SDS011;9799;48.214;16.388;2022-07-29T19:28:49;12.20;;;10.98;;
19329;SDS011;9799;48.214;16.388;2022-07-29T19:32:11;13.63;;;12.10;;
19329;SDS011;9799;48.214;16.388;2022-07-29T19:35:33;11.48;;;10.48;;
19329;SDS011;9799;48.214;16.388;2022-07-29T19:38:54;13.18;;;11.05;;
19329;SDS011;9799;48.214;16.388;2022-07-29T19:42:15;14.35;;;11.27;;
19329;SDS011;9799;48.214;16.388;2022-07-29T19:45:36;11.85;;;10.65;;
19329;SDS011;9799;48.214;16.388;2022-07-29T19:48:59;11.85;;;10.85;;
19329;SDS011;9799;48.214;16.388;2022-07-29T19:52:20;12.15;;;11.05;;
19329;SDS011;9799;48.214;16.388;2022-07-29T19:55:41;14.23;;;12.13;;
19329;SDS011;9799;48.214;16.388;2022-07-29T19:59:02;13.23;;;12.07;;
19329;SDS011;9799;48.214;16.388;2022-07-29T20:02:24;14.25;;;10.68;;
19329;SDS011;9799;48.214;16.388;2022-07-29T20:05:46;12.15;;;11.02;;
19329;SDS011;9799;48.214;16.388;2022-07-29T20:09:09;14.35;;;10.48;;
19329;SDS011;9799;48.214;16.388;2022-07-29T20:12:30;12.15;;;11.05;;
19329;SDS011;9799;48.214;16.388;2022-07-29T20:15:54;12.38;;;11.20;;
19329;SDS011;9799;48.214;16.388;2022-07-29T20:19:15;13.18;;;11.52;;
19329;SDS011;9799;48.214;16.388;2022-07-29T20:22:38;12.00;;;10.88;;